sensor_id;sensor_type;location;lat;lon;timestamp;P1;durP1;ratioP1;P2;durP2;ratioP2
14584;SDS011;7379;51.506;11.876;2023-11-18T00:01:26;2.40;;;2.20;;
14584;SDS011;7379;51.506;11.876;2023-11-18T00:03:57;3.57;;;2.60;;
14584;SDS011;7379;51.506;11.876;2023-11-18T00:06:24;3.33;;;2.63;;
14584;SDS011;7379;51.506;11.876;2023-11-18T00:08:51;3.33;;;2.30;;
14584;SDS011;7379;51.506;11.876;2023-11-18T00:11:18;2.53;;;2.33;;
14584;SDS011;7379;51.506;11.876;2023-11-18T00:13:45;2.63;;;2.43;;
14584;SDS011;7379;51.506;11.876;2023-11-18T00:16:11;2.83;;;2.53;;
14584;SDS011;7379;51.506;11.876;2023-11-18T00:18:42;2.47;;;2.27;;
14584;SDS011;7379;51.506;11.876;2023-11-18T00:21:09;2.70;;;2.50;;
14584;SDS011;7379;51.506;11.876;2023-11-18T00:23:36;3.00;;;2.50;;
14584;SDS011;7379;51.506;11.876;2023-11-18T00:26:04;3.70;;;3.00;;
14584;SDS011;7379;51.506;11.876;2023-11-18T00:28:33;2.70;;;2.50;;
14584;SDS011;7379;51.506;11.876;2023-11-18T00:31:00;3.00;;;2.60;;
14584;SDS011;7379;51.506;11.876;2023-11-18T00:33:29;2.67;;;2.43;;
14584;SDS011;7379;51.506;11.876;2023-11-18T00:35:57;3.10;;;2.80;;
14584;SDS011;7379;51.506;11.876;2023-11-18T00:38:25;2.93;;;2.63;;
14584;SDS011;7379;51.506;11.876;2023-11-18T00:40:52;4.47;;;2.90;;
14584;SDS011;7379;51.506;11.876;2023-11-18T00:43:18;3.27;;;2.97;;
14584;SDS011;7379;51.506;11.876;2023-11-18T00:45:46;2.80;;;2.60;;
14584;SDS011;7379;51.506;11.876;2023-11-18T00:48:13;3.63;;;2.80;;
14584;SDS011;7379;51.506;11.876;2023-11-18T00:50:40;3.10;;;2.77;;
14584;SDS011;7379;51.506;11.876;2023-11-18T00:53:08;3.00;;;2.70;;
14584;SDS011;7379;51.506;11.876;2023-11-18T00:55:35;2.97;;;2.67;;
14584;SDS011;7379;51.506;11.876;2023-11-18T00:58:02;2.70;;;2.50;;
14584;SDS011;7379;51.506;11.876;2023-11-18T01:00:30;3.20;;;2.90;;
14584;SDS011;7379;51.506;11.876;2023-11-18T01:02:56;3.63;;;2.77;;
14584;SDS011;7379;51.506;11.876;2023-11-18T01:05:23;3.10;;;2.80;;
14584;SDS011;7379;51.506;11.876;2023-11-18T01:07:50;2.97;;;2.67;;
14584;SDS011;7379;51.506;11.876;2023-11-18T01:10:19;3.00;;;2.70;;
14584;SDS011;7379;51.506;11.876;2023-11-18T01:12:45;2.90;;;2.60;;
14584;SDS011;7379;51.506;11.876;2023-11-18T01:15:12;3.60;;;2.73;;
14584;SDS011;7379;51.506;11.876;2023-11-18T01:17:39;2.90;;;2.70;;
14584;SDS011;7379;51.506;11.876;2023-11-18T01:20:07;3.27;;;2.97;;
14584;SDS011;7379;51.506;11.876;2023-11-18T01:22:36;3.20;;;2.90;;
14584;SDS011;7379;51.506;11.876;2023-11-18T01:25:03;2.97;;;2.67;;
14584;SDS011;7379;51.506;11.876;2023-11-18T01:27:32;3.30;;;2.67;;
14584;SDS011;7379;51.506;11.876;2023-11-18T01:29:59;3.23;;;2.80;;
14584;SDS011;7379;51.506;11.876;2023-11-18T01:32:26;3.03;;;2.77;;
14584;SDS011;7379;51.506;11.876;2023-11-18T01:34:54;3.33;;;2.97;;
14584;SDS011;7379;51.506;11.876;2023-11-18T01:37:22;3.07;;;2.77;;
14584;SDS011;7379;51.506;11.876;2023-11-18T01:39:49;3.10;;;2.80;;
14584;SDS011;7379;51.506;11.876;2023-11-18T01:42:16;3.50;;;3.07;;
14584;SDS011;7379;51.506;11.876;2023-11-18T01:44:44;3.10;;;2.80;;
14584;SDS011;7379;51.506;11.876;2023-11-18T01:47:12;3.00;;;2.70;;
14584;SDS011;7379;51.506;11.876;2023-11-18T01:49:39;3.17;;;2.87;;
14584;SDS011;7379;51.506;11.876;2023-11-18T01:52:08;3.80;;;3.00;;
14584;SDS011;7379;51.506;11.876;2023-11-18T01:54:37;3.10;;;2.80;;
14584;SDS011;7379;51.506;11.876;2023-11-18T01:57:05;3.17;;;2.87;;
14584;SDS011;7379;51.506;11.876;2023-11-18T01:59:34;3.30;;;3.00;;
14584;SDS011;7379;51.506;11.876;2023-11-18T02:02:04;3.10;;;2.80;;
14584;SDS011;7379;51.506;11.876;2023-11-18T02:04:31;3.17;;;2.87;;
14584;SDS011;7379;51.506;11.876;2023-11-18T02:06:58;2.83;;;2.53;;
14584;SDS011;7379;51.506;11.876;2023-11-18T02:09:34;3.17;;;2.87;;
14584;SDS011;7379;51.506;11.876;2023-11-18T02:12:04;3.03;;;2.73;;
14584;SDS011;7379;51.506;11.876;2023-11-18T02:14:42;3.97;;;3.13;;
14584;SDS011;7379;51.506;11.876;2023-11-18T02:17:12;3.33;;;2.87;;
14584;SDS011;7379;51.506;11.876;2023-11-18T02:19:41;3.70;;;3.23;;
14584;SDS011;7379;51.506;11.876;2023-11-18T02:22:10;3.67;;;2.97;;
14584;SDS011;7379;51.506;11.876;2023-11-18T02:24:37;3.73;;;3.10;;
14584;SDS011;7379;51.506;11.876;2023-11-18T02:27:07;2.90;;;2.70;;
14584;SDS011;7379;51.506;11.876;2023-11-18T02:29:37;3.93;;;3.30;;
14584;SDS011;7379;51.506;11.876;2023-11-18T02:32:09;3.60;;;3.17;;
14584;SDS011;7379;51.506;11.876;2023-11-18T02:34:49;3.40;;;3.10;;
14584;SDS011;7379;51.506;11.876;2023-11-18T02:37:20;3.17;;;2.83;;
14584;SDS011;7379;51.506;11.876;2023-11-18T02:39:49;3.37;;;3.00;;
14584;SDS011;7379;51.506;11.876;2023-11-18T02:42:21;3.93;;;3.30;;
14584;SDS011;7379;51.506;11.876;2023-11-18T02:44:48;3.77;;;3.10;;
14584;SDS011;7379;51.506;11.876;2023-11-18T02:47:24;3.40;;;3.10;;
14584;SDS011;7379;51.506;11.876;2023-11-18T02:49:53;3.27;;;2.97;;
14584;SDS011;7379;51.506;11.876;2023-11-18T02:52:21;3.20;;;2.90;;
14584;SDS011;7379;51.506;11.876;2023-11-18T02:54:48;3.53;;;3.23;;
14584;SDS011;7379;51.506;11.876;2023-11-18T02:57:15;3.03;;;2.73;;
14584;SDS011;7379;51.506;11.876;2023-11-18T02:59:43;3.00;;;2.70;;
14584;SDS011;7379;51.506;11.876;2023-11-18T03:02:12;3.10;;;2.80;;
14584;SDS011;7379;51.506;11.876;2023-11-18T03:04:40;3.53;;;3.03;;
14584;SDS011;7379;51.506;11.876;2023-11-18T03:07:09;4.50;;;3.57;;
14584;SDS011;7379;51.506;11.876;2023-11-18T03:09:36;3.43;;;3.00;;
14584;SDS011;7379;51.506;11.876;2023-11-18T03:12:05;3.40;;;3.10;;
14584;SDS011;7379;51.506;11.876;2023-11-18T03:14:32;3.23;;;2.93;;
14584;SDS011;7379;51.506;11.876;2023-11-18T03:17:01;5.03;;;3.23;;
14584;SDS011;7379;51.506;11.876;2023-11-18T03:19:31;4.83;;;3.87;;
14584;SDS011;7379;51.506;11.876;2023-11-18T03:21:59;3.83;;;3.50;;
14584;SDS011;7379;51.506;11.876;2023-11-18T03:24:26;3.73;;;3.30;;
14584;SDS011;7379;51.506;11.876;2023-11-18T03:26:54;5.13;;;4.30;;
14584;SDS011;7379;51.506;11.876;2023-11-18T03:29:21;4.20;;;3.57;;
14584;SDS011;7379;51.506;11.876;2023-11-18T03:31:48;4.40;;;3.77;;
14584;SDS011;7379;51.506;11.876;2023-11-18T03:34:16;5.30;;;4.10;;
14584;SDS011;7379;51.506;11.876;2023-11-18T03:36:45;4.00;;;3.60;;
14584;SDS011;7379;51.506;11.876;2023-11-18T03:39:12;4.37;;;3.63;;
14584;SDS011;7379;51.506;11.876;2023-11-18T03:41:40;4.50;;;3.83;;
14584;SDS011;7379;51.506;11.876;2023-11-18T03:44:09;4.83;;;3.97;;
14584;SDS011;7379;51.506;11.876;2023-11-18T03:46:37;5.30;;;4.43;;
14584;SDS011;7379;51.506;11.876;2023-11-18T03:49:04;4.73;;;4.23;;
14584;SDS011;7379;51.506;11.876;2023-11-18T03:51:32;6.33;;;4.83;;
14584;SDS011;7379;51.506;11.876;2023-11-18T03:53:59;4.70;;;4.13;;
14584;SDS011;7379;51.506;11.876;2023-11-18T03:56:26;4.87;;;4.33;;
14584;SDS011;7379;51.506;11.876;2023-11-18T03:58:53;5.00;;;4.50;;
14584;SDS011;7379;51.506;11.876;2023-11-18T04:01:20;4.87;;;4.30;;
14584;SDS011;7379;51.506;11.876;2023-11-18T04:03:47;5.00;;;4.50;;
14584;SDS011;7379;51.506;11.876;2023-11-18T04:06:15;5.07;;;4.57;;
14584;SDS011;7379;51.506;11.876;2023-11-18T04:08:44;5.53;;;4.90;;
14584;SDS011;7379;51.506;11.876;2023-11-18T04:11:11;5.53;;;4.73;;
14584;SDS011;7379;51.506;11.876;2023-11-18T04:13:39;6.57;;;4.80;;
14584;SDS011;7379;51.506;11.876;2023-11-18T04:16:09;6.00;;;5.20;;
14584;SDS011;7379;51.506;11.876;2023-11-18T04:18:37;7.00;;;5.07;;
14584;SDS011;7379;51.506;11.876;2023-11-18T04:21:05;5.83;;;4.80;;
14584;SDS011;7379;51.506;11.876;2023-11-18T04:23:32;5.87;;;5.20;;
14584;SDS011;7379;51.506;11.876;2023-11-18T04:26:01;6.07;;;4.90;;
14584;SDS011;7379;51.506;11.876;2023-11-18T04:28:28;7.80;;;5.83;;
14584;SDS011;7379;51.506;11.876;2023-11-18T04:30:55;7.33;;;5.17;;
14584;SDS011;7379;51.506;11.876;2023-11-18T04:33:22;6.13;;;5.03;;
14584;SDS011;7379;51.506;11.876;2023-11-18T04:35:49;6.17;;;5.57;;
14584;SDS011;7379;51.506;11.876;2023-11-18T04:38:16;7.53;;;5.93;;
14584;SDS011;7379;51.506;11.876;2023-11-18T04:40:43;6.83;;;6.07;;
14584;SDS011;7379;51.506;11.876;2023-11-18T04:43:12;8.00;;;6.23;;
14584;SDS011;7379;51.506;11.876;2023-11-18T04:45:40;6.40;;;5.50;;
14584;SDS011;7379;51.506;11.876;2023-11-18T04:48:08;9.07;;;6.23;;
14584;SDS011;7379;51.506;11.876;2023-11-18T04:50:35;7.30;;;6.40;;
14584;SDS011;7379;51.506;11.876;2023-11-18T04:53:01;7.40;;;6.60;;
14584;SDS011;7379;51.506;11.876;2023-11-18T04:55:29;8.07;;;6.80;;
14584;SDS011;7379;51.506;11.876;2023-11-18T04:57:56;7.63;;;6.33;;
14584;SDS011;7379;51.506;11.876;2023-11-18T05:00:23;8.37;;;7.00;;
14584;SDS011;7379;51.506;11.876;2023-11-18T05:02:50;7.00;;;6.27;;
14584;SDS011;7379;51.506;11.876;2023-11-18T05:05:18;7.67;;;6.07;;
14584;SDS011;7379;51.506;11.876;2023-11-18T05:07:44;7.80;;;6.83;;
14584;SDS011;7379;51.506;11.876;2023-11-18T05:10:11;7.60;;;6.83;;
14584;SDS011;7379;51.506;11.876;2023-11-18T05:12:38;8.73;;;6.63;;
14584;SDS011;7379;51.506;11.876;2023-11-18T05:15:06;7.50;;;6.70;;
14584;SDS011;7379;51.506;11.876;2023-11-18T05:17:35;7.90;;;7.10;;
14584;SDS011;7379;51.506;11.876;2023-11-18T05:20:02;8.30;;;6.60;;
14584;SDS011;7379;51.506;11.876;2023-11-18T05:22:29;8.57;;;7.10;;
14584;SDS011;7379;51.506;11.876;2023-11-18T05:24:57;8.17;;;7.03;;
14584;SDS011;7379;51.506;11.876;2023-11-18T05:27:24;8.57;;;7.37;;
14584;SDS011;7379;51.506;11.876;2023-11-18T05:29:51;9.80;;;7.43;;
14584;SDS011;7379;51.506;11.876;2023-11-18T05:32:20;8.70;;;7.20;;
14584;SDS011;7379;51.506;11.876;2023-11-18T05:34:49;9.07;;;7.33;;
14584;SDS011;7379;51.506;11.876;2023-11-18T05:37:18;8.80;;;7.23;;
14584;SDS011;7379;51.506;11.876;2023-11-18T05:39:45;9.83;;;7.57;;
14584;SDS011;7379;51.506;11.876;2023-11-18T05:42:14;8.50;;;7.20;;
14584;SDS011;7379;51.506;11.876;2023-11-18T05:44:41;8.90;;;7.07;;
14584;SDS011;7379;51.506;11.876;2023-11-18T05:47:08;8.70;;;7.33;;
14584;SDS011;7379;51.506;11.876;2023-11-18T05:49:36;8.60;;;7.07;;
14584;SDS011;7379;51.506;11.876;2023-11-18T05:52:05;11.00;;;8.33;;
14584;SDS011;7379;51.506;11.876;2023-11-18T05:54:32;10.03;;;7.57;;
14584;SDS011;7379;51.506;11.876;2023-11-18T05:56:59;10.37;;;8.00;;
14584;SDS011;7379;51.506;11.876;2023-11-18T05:59:26;8.73;;;7.43;;
14584;SDS011;7379;51.506;11.876;2023-11-18T06:01:53;9.03;;;7.50;;
14584;SDS011;7379;51.506;11.876;2023-11-18T06:04:22;8.63;;;7.63;;
14584;SDS011;7379;51.506;11.876;2023-11-18T06:06:48;10.00;;;7.70;;
14584;SDS011;7379;51.506;11.876;2023-11-18T06:09:17;10.40;;;8.13;;
14584;SDS011;7379;51.506;11.876;2023-11-18T06:11:46;9.27;;;7.63;;
14584;SDS011;7379;51.506;11.876;2023-11-18T06:14:14;8.10;;;7.17;;
14584;SDS011;7379;51.506;11.876;2023-11-18T06:16:41;9.37;;;7.47;;
14584;SDS011;7379;51.506;11.876;2023-11-18T06:19:09;9.10;;;7.97;;
14584;SDS011;7379;51.506;11.876;2023-11-18T06:21:36;8.77;;;7.20;;
14584;SDS011;7379;51.506;11.876;2023-11-18T06:24:03;9.37;;;7.87;;
14584;SDS011;7379;51.506;11.876;2023-11-18T06:26:32;10.13;;;8.07;;
14584;SDS011;7379;51.506;11.876;2023-11-18T06:29:01;10.93;;;8.07;;
14584;SDS011;7379;51.506;11.876;2023-11-18T06:31:29;8.70;;;7.80;;
14584;SDS011;7379;51.506;11.876;2023-11-18T06:33:56;10.03;;;7.67;;
14584;SDS011;7379;51.506;11.876;2023-11-18T06:36:22;10.70;;;7.80;;
14584;SDS011;7379;51.506;11.876;2023-11-18T06:38:51;10.73;;;8.17;;
14584;SDS011;7379;51.506;11.876;2023-11-18T06:41:21;9.90;;;7.87;;
14584;SDS011;7379;51.506;11.876;2023-11-18T06:43:52;9.87;;;7.63;;
14584;SDS011;7379;51.506;11.876;2023-11-18T06:46:26;10.67;;;8.90;;
14584;SDS011;7379;51.506;11.876;2023-11-18T06:48:57;10.53;;;7.87;;
14584;SDS011;7379;51.506;11.876;2023-11-18T06:51:24;9.87;;;8.33;;
14584;SDS011;7379;51.506;11.876;2023-11-18T06:53:53;10.10;;;7.93;;
14584;SDS011;7379;51.506;11.876;2023-11-18T06:56:21;10.57;;;7.97;;
14584;SDS011;7379;51.506;11.876;2023-11-18T06:58:48;10.27;;;8.07;;
14584;SDS011;7379;51.506;11.876;2023-11-18T07:01:16;10.03;;;7.93;;
14584;SDS011;7379;51.506;11.876;2023-11-18T07:03:43;9.20;;;8.07;;
14584;SDS011;7379;51.506;11.876;2023-11-18T07:06:11;9.87;;;7.90;;
14584;SDS011;7379;51.506;11.876;2023-11-18T07:08:39;10.17;;;8.23;;
14584;SDS011;7379;51.506;11.876;2023-11-18T07:11:06;11.77;;;8.73;;
14584;SDS011;7379;51.506;11.876;2023-11-18T07:13:33;10.20;;;8.10;;
14584;SDS011;7379;51.506;11.876;2023-11-18T07:16:00;8.90;;;8.00;;
14584;SDS011;7379;51.506;11.876;2023-11-18T07:18:29;9.63;;;7.23;;
14584;SDS011;7379;51.506;11.876;2023-11-18T07:20:56;10.33;;;8.17;;
14584;SDS011;7379;51.506;11.876;2023-11-18T07:23:25;9.83;;;7.83;;
14584;SDS011;7379;51.506;11.876;2023-11-18T07:25:52;9.47;;;7.77;;
14584;SDS011;7379;51.506;11.876;2023-11-18T07:28:19;10.63;;;7.87;;
14584;SDS011;7379;51.506;11.876;2023-11-18T07:30:46;9.87;;;7.53;;
14584;SDS011;7379;51.506;11.876;2023-11-18T07:33:13;9.27;;;7.80;;
14584;SDS011;7379;51.506;11.876;2023-11-18T07:35:42;10.87;;;8.00;;
14584;SDS011;7379;51.506;11.876;2023-11-18T07:38:11;10.47;;;8.43;;
14584;SDS011;7379;51.506;11.876;2023-11-18T07:40:38;9.73;;;8.10;;
14584;SDS011;7379;51.506;11.876;2023-11-18T07:43:07;10.83;;;8.23;;
14584;SDS011;7379;51.506;11.876;2023-11-18T07:45:35;11.43;;;8.00;;
14584;SDS011;7379;51.506;11.876;2023-11-18T07:48:03;10.00;;;7.73;;
14584;SDS011;7379;51.506;11.876;2023-11-18T07:50:32;11.87;;;8.47;;
14584;SDS011;7379;51.506;11.876;2023-11-18T07:53:01;10.47;;;8.20;;
14584;SDS011;7379;51.506;11.876;2023-11-18T07:55:28;11.33;;;8.33;;
14584;SDS011;7379;51.506;11.876;2023-11-18T07:57:55;11.33;;;8.33;;
14584;SDS011;7379;51.506;11.876;2023-11-18T08:00:22;10.70;;;8.40;;
14584;SDS011;7379;51.506;11.876;2023-11-18T08:02:49;10.60;;;8.67;;
14584;SDS011;7379;51.506;11.876;2023-11-18T08:05:19;9.70;;;8.10;;
14584;SDS011;7379;51.506;11.876;2023-11-18T08:07:48;9.93;;;7.80;;
14584;SDS011;7379;51.506;11.876;2023-11-18T08:10:16;11.67;;;8.63;;
14584;SDS011;7379;51.506;11.876;2023-11-18T08:12:44;10.40;;;8.20;;
14584;SDS011;7379;51.506;11.876;2023-11-18T08:15:12;10.63;;;8.00;;
14584;SDS011;7379;51.506;11.876;2023-11-18T08:17:39;9.47;;;7.97;;
14584;SDS011;7379;51.506;11.876;2023-11-18T08:20:06;10.83;;;8.30;;
14584;SDS011;7379;51.506;11.876;2023-11-18T08:22:39;11.57;;;9.10;;
14584;SDS011;7379;51.506;11.876;2023-11-18T08:25:07;10.73;;;8.47;;
14584;SDS011;7379;51.506;11.876;2023-11-18T08:27:36;11.07;;;8.73;;
14584;SDS011;7379;51.506;11.876;2023-11-18T08:30:03;13.87;;;8.87;;
14584;SDS011;7379;51.506;11.876;2023-11-18T08:32:35;10.87;;;8.40;;
14584;SDS011;7379;51.506;11.876;2023-11-18T08:35:04;10.73;;;9.13;;
14584;SDS011;7379;51.506;11.876;2023-11-18T08:37:32;10.43;;;8.33;;
14584;SDS011;7379;51.506;11.876;2023-11-18T08:40:00;15.40;;;10.53;;
14584;SDS011;7379;51.506;11.876;2023-11-18T08:42:27;11.23;;;9.43;;
14584;SDS011;7379;51.506;11.876;2023-11-18T08:44:55;12.00;;;9.20;;
14584;SDS011;7379;51.506;11.876;2023-11-18T08:47:24;11.73;;;8.83;;
14584;SDS011;7379;51.506;11.876;2023-11-18T08:49:51;13.53;;;9.87;;
14584;SDS011;7379;51.506;11.876;2023-11-18T08:52:17;12.13;;;9.57;;
14584;SDS011;7379;51.506;11.876;2023-11-18T08:54:44;13.80;;;9.70;;
14584;SDS011;7379;51.506;11.876;2023-11-18T08:57:25;14.10;;;10.23;;
14584;SDS011;7379;51.506;11.876;2023-11-18T08:59:52;11.93;;;9.00;;
14584;SDS011;7379;51.506;11.876;2023-11-18T09:02:25;12.20;;;9.10;;
14584;SDS011;7379;51.506;11.876;2023-11-18T09:04:54;12.80;;;9.60;;
14584;SDS011;7379;51.506;11.876;2023-11-18T09:07:23;15.03;;;9.57;;
14584;SDS011;7379;51.506;11.876;2023-11-18T09:09:51;11.80;;;9.13;;
14584;SDS011;7379;51.506;11.876;2023-11-18T09:12:18;12.80;;;9.93;;
14584;SDS011;7379;51.506;11.876;2023-11-18T09:14:45;11.80;;;9.00;;
14584;SDS011;7379;51.506;11.876;2023-11-18T09:17:12;12.93;;;9.90;;
14584;SDS011;7379;51.506;11.876;2023-11-18T09:19:41;13.63;;;9.53;;
14584;SDS011;7379;51.506;11.876;2023-11-18T09:22:10;15.07;;;9.93;;
14584;SDS011;7379;51.506;11.876;2023-11-18T09:24:39;13.17;;;9.73;;
14584;SDS011;7379;51.506;11.876;2023-11-18T09:27:06;13.43;;;9.33;;
14584;SDS011;7379;51.506;11.876;2023-11-18T09:29:34;11.27;;;9.10;;
14584;SDS011;7379;51.506;11.876;2023-11-18T09:32:01;12.30;;;9.47;;
14584;SDS011;7379;51.506;11.876;2023-11-18T09:34:31;13.13;;;9.17;;
14584;SDS011;7379;51.506;11.876;2023-11-18T09:36:59;13.20;;;9.63;;
14584;SDS011;7379;51.506;11.876;2023-11-18T09:39:26;13.87;;;9.27;;
14584;SDS011;7379;51.506;11.876;2023-11-18T09:42:03;13.20;;;9.87;;
14584;SDS011;7379;51.506;11.876;2023-11-18T09:44:34;12.57;;;9.37;;
14584;SDS011;7379;51.506;11.876;2023-11-18T09:47:03;11.17;;;9.13;;
14584;SDS011;7379;51.506;11.876;2023-11-18T09:49:36;12.23;;;9.03;;
14584;SDS011;7379;51.506;11.876;2023-11-18T09:52:13;11.57;;;9.07;;
14584;SDS011;7379;51.506;11.876;2023-11-18T09:54:45;13.73;;;9.57;;
14584;SDS011;7379;51.506;11.876;2023-11-18T09:57:23;12.17;;;9.03;;
14584;SDS011;7379;51.506;11.876;2023-11-18T09:59:58;11.77;;;9.07;;
14584;SDS011;7379;51.506;11.876;2023-11-18T10:02:37;12.47;;;9.10;;
14584;SDS011;7379;51.506;11.876;2023-11-18T10:05:06;13.60;;;9.20;;
14584;SDS011;7379;51.506;11.876;2023-11-18T10:07:39;12.80;;;9.80;;
14584;SDS011;7379;51.506;11.876;2023-11-18T10:10:08;12.73;;;9.23;;
14584;SDS011;7379;51.506;11.876;2023-11-18T10:12:39;12.33;;;8.87;;
14584;SDS011;7379;51.506;11.876;2023-11-18T10:15:09;11.90;;;8.80;;
14584;SDS011;7379;51.506;11.876;2023-11-18T10:17:39;11.57;;;8.87;;
14584;SDS011;7379;51.506;11.876;2023-11-18T10:20:20;11.83;;;9.73;;
14584;SDS011;7379;51.506;11.876;2023-11-18T10:22:52;12.00;;;9.13;;
14584;SDS011;7379;51.506;11.876;2023-11-18T10:25:34;12.23;;;9.50;;
14584;SDS011;7379;51.506;11.876;2023-11-18T10:28:05;13.80;;;9.83;;
14584;SDS011;7379;51.506;11.876;2023-11-18T10:30:42;11.60;;;9.10;;
14584;SDS011;7379;51.506;11.876;2023-11-18T10:33:11;11.97;;;9.20;;
14584;SDS011;7379;51.506;11.876;2023-11-18T10:35:48;11.07;;;8.97;;
14584;SDS011;7379;51.506;11.876;2023-11-18T10:38:17;12.73;;;9.63;;
14584;SDS011;7379;51.506;11.876;2023-11-18T10:40:44;13.27;;;9.43;;
14584;SDS011;7379;51.506;11.876;2023-11-18T10:43:11;12.37;;;9.17;;
14584;SDS011;7379;51.506;11.876;2023-11-18T10:45:42;12.80;;;9.87;;
14584;SDS011;7379;51.506;11.876;2023-11-18T10:48:11;13.17;;;9.50;;
14584;SDS011;7379;51.506;11.876;2023-11-18T10:50:41;11.93;;;8.97;;
14584;SDS011;7379;51.506;11.876;2023-11-18T10:53:11;11.27;;;9.37;;
14584;SDS011;7379;51.506;11.876;2023-11-18T10:55:42;12.40;;;9.60;;
14584;SDS011;7379;51.506;11.876;2023-11-18T10:58:09;12.13;;;9.43;;
14584;SDS011;7379;51.506;11.876;2023-11-18T11:00:45;14.23;;;10.73;;
14584;SDS011;7379;51.506;11.876;2023-11-18T11:03:13;13.73;;;9.80;;
14584;SDS011;7379;51.506;11.876;2023-11-18T11:05:40;12.50;;;9.47;;
14584;SDS011;7379;51.506;11.876;2023-11-18T11:08:09;13.00;;;9.63;;
14584;SDS011;7379;51.506;11.876;2023-11-18T11:10:38;11.97;;;9.30;;
14584;SDS011;7379;51.506;11.876;2023-11-18T11:13:08;11.83;;;9.53;;
14584;SDS011;7379;51.506;11.876;2023-11-18T11:15:37;12.23;;;9.17;;
14584;SDS011;7379;51.506;11.876;2023-11-18T11:18:11;12.97;;;9.43;;
14584;SDS011;7379;51.506;11.876;2023-11-18T11:20:47;12.37;;;9.00;;
14584;SDS011;7379;51.506;11.876;2023-11-18T11:23:30;10.83;;;8.50;;
14584;SDS011;7379;51.506;11.876;2023-11-18T11:26:18;12.97;;;9.30;;
14584;SDS011;7379;51.506;11.876;2023-11-18T11:29:07;11.73;;;9.07;;
14584;SDS011;7379;51.506;11.876;2023-11-18T11:31:40;10.13;;;8.80;;
14584;SDS011;7379;51.506;11.876;2023-11-18T11:34:09;11.47;;;9.03;;
14584;SDS011;7379;51.506;11.876;2023-11-18T11:36:44;11.00;;;8.37;;
14584;SDS011;7379;51.506;11.876;2023-11-18T11:39:15;10.73;;;8.67;;
14584;SDS011;7379;51.506;11.876;2023-11-18T11:41:50;10.63;;;8.00;;
14584;SDS011;7379;51.506;11.876;2023-11-18T11:44:21;10.87;;;8.73;;
14584;SDS011;7379;51.506;11.876;2023-11-18T11:46:53;12.03;;;9.37;;
14584;SDS011;7379;51.506;11.876;2023-11-18T11:49:21;11.40;;;8.60;;
14584;SDS011;7379;51.506;11.876;2023-11-18T11:51:55;12.13;;;9.13;;
14584;SDS011;7379;51.506;11.876;2023-11-18T11:54:29;12.27;;;9.43;;
14584;SDS011;7379;51.506;11.876;2023-11-18T11:57:15;11.10;;;8.17;;
14584;SDS011;7379;51.506;11.876;2023-11-18T11:59:55;11.57;;;8.73;;
14584;SDS011;7379;51.506;11.876;2023-11-18T12:02:22;9.63;;;7.77;;
14584;SDS011;7379;51.506;11.876;2023-11-18T12:04:54;11.93;;;8.47;;
14584;SDS011;7379;51.506;11.876;2023-11-18T12:07:24;10.57;;;7.60;;
14584;SDS011;7379;51.506;11.876;2023-11-18T12:09:54;9.03;;;7.37;;
14584;SDS011;7379;51.506;11.876;2023-11-18T12:12:22;8.93;;;7.67;;
14584;SDS011;7379;51.506;11.876;2023-11-18T12:14:52;9.43;;;7.27;;
14584;SDS011;7379;51.506;11.876;2023-11-18T12:17:22;9.80;;;7.27;;
14584;SDS011;7379;51.506;11.876;2023-11-18T12:19:54;8.97;;;7.27;;
14584;SDS011;7379;51.506;11.876;2023-11-18T12:22:24;10.77;;;7.80;;
14584;SDS011;7379;51.506;11.876;2023-11-18T12:27:57;8.37;;;6.90;;
14584;SDS011;7379;51.506;11.876;2023-11-18T12:30:40;8.50;;;7.03;;
14584;SDS011;7379;51.506;11.876;2023-11-18T12:33:18;8.60;;;6.83;;
14584;SDS011;7379;51.506;11.876;2023-11-18T12:36:03;9.80;;;7.00;;
14584;SDS011;7379;51.506;11.876;2023-11-18T12:42:01;8.93;;;6.33;;
14584;SDS011;7379;51.506;11.876;2023-11-18T12:44:37;7.57;;;6.17;;
14584;SDS011;7379;51.506;11.876;2023-11-18T12:47:09;7.70;;;6.30;;
14584;SDS011;7379;51.506;11.876;2023-11-18T12:49:45;7.53;;;6.30;;
14584;SDS011;7379;51.506;11.876;2023-11-18T12:52:17;7.10;;;6.13;;
14584;SDS011;7379;51.506;11.876;2023-11-18T12:54:46;7.83;;;6.30;;
14584;SDS011;7379;51.506;11.876;2023-11-18T12:57:16;7.70;;;5.97;;
14584;SDS011;7379;51.506;11.876;2023-11-18T12:59:43;6.73;;;5.53;;
14584;SDS011;7379;51.506;11.876;2023-11-18T13:02:11;5.83;;;5.13;;
14584;SDS011;7379;51.506;11.876;2023-11-18T13:04:45;6.77;;;5.57;;
14584;SDS011;7379;51.506;11.876;2023-11-18T13:07:14;6.80;;;5.43;;
14584;SDS011;7379;51.506;11.876;2023-11-18T13:09:42;6.63;;;5.67;;
14584;SDS011;7379;51.506;11.876;2023-11-18T13:12:11;6.27;;;5.03;;
14584;SDS011;7379;51.506;11.876;2023-11-18T13:14:40;5.87;;;5.20;;
14584;SDS011;7379;51.506;11.876;2023-11-18T13:17:09;6.53;;;5.53;;
14584;SDS011;7379;51.506;11.876;2023-11-18T13:19:38;7.20;;;5.43;;
14584;SDS011;7379;51.506;11.876;2023-11-18T13:22:07;7.27;;;5.67;;
14584;SDS011;7379;51.506;11.876;2023-11-18T13:24:34;6.33;;;4.90;;
14584;SDS011;7379;51.506;11.876;2023-11-18T13:27:04;6.03;;;5.23;;
14584;SDS011;7379;51.506;11.876;2023-11-18T13:29:33;6.20;;;5.07;;
14584;SDS011;7379;51.506;11.876;2023-11-18T13:32:02;6.57;;;5.00;;
14584;SDS011;7379;51.506;11.876;2023-11-18T13:34:29;5.67;;;5.10;;
14584;SDS011;7379;51.506;11.876;2023-11-18T13:36:58;6.73;;;5.50;;
14584;SDS011;7379;51.506;11.876;2023-11-18T13:39:27;6.33;;;5.30;;
14584;SDS011;7379;51.506;11.876;2023-11-18T13:41:56;6.50;;;5.00;;
14584;SDS011;7379;51.506;11.876;2023-11-18T13:44:32;6.53;;;5.03;;
14584;SDS011;7379;51.506;11.876;2023-11-18T13:47:00;5.87;;;5.00;;
14584;SDS011;7379;51.506;11.876;2023-11-18T13:49:30;6.30;;;5.20;;
14584;SDS011;7379;51.506;11.876;2023-11-18T13:51:57;6.40;;;5.50;;
14584;SDS011;7379;51.506;11.876;2023-11-18T13:54:26;7.10;;;5.57;;
14584;SDS011;7379;51.506;11.876;2023-11-18T13:56:54;6.53;;;5.53;;
14584;SDS011;7379;51.506;11.876;2023-11-18T13:59:23;5.83;;;5.23;;
14584;SDS011;7379;51.506;11.876;2023-11-18T14:01:51;7.93;;;5.13;;
14584;SDS011;7379;51.506;11.876;2023-11-18T14:04:19;8.33;;;5.47;;
14584;SDS011;7379;51.506;11.876;2023-11-18T14:06:50;6.47;;;5.43;;
14584;SDS011;7379;51.506;11.876;2023-11-18T14:09:18;6.23;;;4.90;;
14584;SDS011;7379;51.506;11.876;2023-11-18T14:11:47;5.70;;;4.90;;
14584;SDS011;7379;51.506;11.876;2023-11-18T14:14:14;6.23;;;4.83;;
14584;SDS011;7379;51.506;11.876;2023-11-18T14:16:42;5.00;;;4.30;;
14584;SDS011;7379;51.506;11.876;2023-11-18T14:19:10;6.47;;;5.20;;
14584;SDS011;7379;51.506;11.876;2023-11-18T14:21:37;6.67;;;4.90;;
14584;SDS011;7379;51.506;11.876;2023-11-18T14:24:06;6.50;;;5.30;;
14584;SDS011;7379;51.506;11.876;2023-11-18T14:26:33;6.93;;;5.40;;
14584;SDS011;7379;51.506;11.876;2023-11-18T14:29:02;5.53;;;4.83;;
14584;SDS011;7379;51.506;11.876;2023-11-18T14:31:29;6.60;;;4.93;;
14584;SDS011;7379;51.506;11.876;2023-11-18T14:33:56;6.53;;;4.60;;
14584;SDS011;7379;51.506;11.876;2023-11-18T14:36:23;5.23;;;4.73;;
14584;SDS011;7379;51.506;11.876;2023-11-18T14:38:50;6.30;;;4.67;;
14584;SDS011;7379;51.506;11.876;2023-11-18T14:41:17;7.20;;;4.60;;
14584;SDS011;7379;51.506;11.876;2023-11-18T14:43:45;6.70;;;4.60;;
14584;SDS011;7379;51.506;11.876;2023-11-18T14:46:13;4.70;;;4.10;;
14584;SDS011;7379;51.506;11.876;2023-11-18T14:48:40;5.40;;;4.67;;
14584;SDS011;7379;51.506;11.876;2023-11-18T14:51:07;5.83;;;4.40;;
14584;SDS011;7379;51.506;11.876;2023-11-18T14:53:34;4.93;;;4.37;;
14584;SDS011;7379;51.506;11.876;2023-11-18T14:56:01;5.50;;;4.50;;
14584;SDS011;7379;51.506;11.876;2023-11-18T14:58:29;5.50;;;4.27;;
14584;SDS011;7379;51.506;11.876;2023-11-18T15:00:57;4.57;;;4.10;;